Nearby METAR Reports

 

KPIA - Peoria, Illinois, USA
Distance from station: SSW 11mi, 18km
Updated: 11/13/2018 7:54pm
Clear
Clear
 Wind from NW
Wind: NW 3 mph , 6 km/h
Temperature: 23°F , -5°C
Dew Point: 12°F , -11°C
Humidity: 63%
Barometer: 30.51 inHg , 1033.2 hPa
Clouds: Clear
Visibility: 10 miles , 16 km
2018/11/14 01:54 KPIA 140154Z 31003KT 10SM CLR M05/M11 A3051 RMK AO2 SLP341 T10501111
KC75 - Lacon, Illinois, USA
Distance from station: NE 18mi, 30km
Updated: 11/13/2018 8:35pm
Clear
Clear
 Wind from WNW
Wind: WNW 5 mph , 7 km/h
Temperature: 23°F , -5°C
Wind Chill: 17°F , -8°C
Dew Point: 12°F , -11°C
Humidity: 63%
Barometer: 30.51 inHg , 1033.2 hPa
Clouds: Clear
Visibility: 10 miles , 16 km
2018/11/14 02:35 KC75 140235Z AUTO 30004KT 10SM CLR M05/M11 A3051 RMK AO2 T10551110
 
KGBG - Galesburg, Illinois, USA
Distance from station: W 43mi, 69km
Updated: 11/13/2018 8:35pm
Clear
Clear
 Wind from WNW
Wind: WNW 3 mph , 6 km/h
Temperature: 19°F , -7°C
Dew Point: 12°F , -11°C
Humidity: 73%
Barometer: 30.52 inHg , 1033.5 hPa
Clouds: Clear
Visibility: 10 miles , 16 km
2018/11/14 02:35 KGBG 140235Z AUTO 29003KT 10SM CLR M07/M11 A3052 RMK AO2 T10751110
KBMI - Bloomington/Norm, Illinois, USA
Distance from station: ESE 44mi, 71km
Updated: 11/13/2018 7:56pm
Clear
Clear
 Wind from W
Wind: W 5 mph , 7 km/h
Temperature: 18°F , -8°C
Wind Chill: 11°F , -12°C
Dew Point: 10°F , -12°C
Humidity: 73%
Barometer: 30.49 inHg , 1032.5 hPa
Clouds: Clear
Visibility: 10 miles , 16 km
2018/11/14 01:56 KBMI 140156Z 26004KT 10SM CLR M08/M12 A3049 RMK AO2 SLP353 T10781122
 
KVYS - Peru, Illinois, USA
Distance from station: NNE 44mi, 71km
Updated: 11/13/2018 8:35pm
Clear
Clear
 Wind from W
Wind: W 7 mph , 11 km/h
Temperature: 23°F , -5°C
Wind Chill: 15°F , -9°C
Dew Point: 16°F , -9°C
Humidity: 74%
Barometer: 30.50 inHg , 1032.8 hPa
Clouds: Clear
Visibility: 10 miles , 16 km
2018/11/14 02:35 KVYS 140235Z AUTO 28006KT 10SM CLR M05/M09 A3050 RMK AO2 T10551095
KAAA - Lincoln, Illinois, USA
Distance from station: SSE 48mi, 77km
Updated: 11/13/2018 8:35pm
Clear
Clear
 Wind from calm
Wind: Calm
Temperature: 23°F , -5°C
Dew Point: 16°F , -9°C
Humidity: 74%
Barometer: 30.53 inHg , 1033.9 hPa
Clouds: Clear
Visibility: 10 miles , 16 km
2018/11/14 02:35 KAAA 140235Z AUTO 00000KT 10SM CLR M05/M09 A3053 RMK AO2 T10541088
 
KPNT - Pontiac, Illinois, USA
Distance from station: E 53mi, 85km
Updated: 11/13/2018 8:35pm
Clear
Clear
 Wind from WNW
Wind: WNW 5 mph , 7 km/h
Temperature: 21°F , -6°C
Wind Chill: 14°F , -10°C
Dew Point: 16°F , -9°C
Humidity: 80%
Barometer: 30.51 inHg , 1033.2 hPa
Clouds: Clear
Visibility: 10 miles , 16 km
2018/11/14 02:35 KPNT 140235Z AUTO 29004KT 10SM CLR M06/M09 A3051 RMK AO2 T10591095
KMQB - Macomb Muni, Illinois, USA
Distance from station: WSW 58mi, 93km
Updated: 11/13/2018 8:35pm
Clear
Clear
 Wind from W
Wind: W 3 mph , 6 km/h
Temperature: 18°F , -8°C
Dew Point: 12°F , -11°C
Humidity: 79%
Barometer: 30.55 inHg , 1034.5 hPa
Clouds: Clear
Visibility: 10 miles , 16 km
2018/11/14 02:35 KMQB 140235Z AUTO 26003KT 10SM CLR M08/M11 A3055 RMK AO2 T10831111
 
KMLI - Moline/Quad City, Illinois, USA
Distance from station: NW 64mi, 103km
Updated: 11/13/2018 7:52pm
Clear
Clear
 Wind from WNW
Wind: WNW 7 mph , 11 km/h
Temperature: 25°F , -4°C
Wind Chill: 17°F , -8°C
Dew Point: 10°F , -12°C
Humidity: 54%
Barometer: 30.50 inHg , 1032.8 hPa
Clouds: Clear
Visibility: 10 miles , 16 km
2018/11/14 01:52 KMLI 140152Z 30006KT 10SM CLR M04/M12 A3050 RMK AO2 SLP338 T10441117
KSQI - Sterling Rockfal, Illinois, USA
Distance from station: N 64mi, 103km
Updated: 11/13/2018 7:56pm

 Wind from W
Wind: W 8 mph , 13 km/h
Temperature: 19°F , -7°C
Wind Chill: 9°F , -13°C
Dew Point: 12°F , -11°C
Humidity: 73%
Barometer: 30.49 inHg , 1032.5 hPa
Visibility: 10 miles , 16 km
2018/11/14 01:56 KSQI 140156Z AUTO 28007KT 10SM M07/M11 A3049 RMK AO2 SLP348 T10671106 FZRANO $
 
KSPI - Springfield, Illinois, USA
Distance from station: S 67mi, 108km
Updated: 11/13/2018 7:52pm
Clear
Clear
 Wind from W
Wind: W 3 mph , 6 km/h
Temperature: 19°F , -7°C
Dew Point: 18°F , -8°C
Humidity: 93%
Barometer: 30.53 inHg , 1033.9 hPa
Clouds: Clear
Visibility: 10 miles , 16 km
2018/11/14 01:52 KSPI 140152Z 28003KT 10SM CLR M07/M08 A3053 RMK AO2 SLP346 T10671083 $
KDVN - Davenport/Quad C, Iowa, USA
Distance from station: NW 74mi, 120km
Updated: 11/13/2018 7:52pm
Clear
Clear
 Wind from WNW
Wind: WNW 6 mph , 9 km/h
Temperature: 19°F , -7°C
Wind Chill: 11°F , -12°C
Dew Point: 10°F , -12°C
Humidity: 68%
Barometer: 30.51 inHg , 1033.2 hPa
Clouds: Clear
Visibility: 10 miles , 16 km
2018/11/14 01:52 KDVN 140152Z AUTO 29005KT 10SM CLR M07/M12 A3051 RMK AO2 SLP343 T10671117